Time;durP1;ratioP1;P1;durP2;ratioP2;P2;SDS_P1;SDS_P2;PMS_P1;PMS_P2;Temp;Humidity;BMP_temperature;BMP_pressure;BME280_temperature;BME280_humidity;BME280_pressure;Samples;Min_cycle;Max_cycle;Signal;HPM_P1;HPM_P2
2022/12/01 00:01:01;;;;;;;63.67;33.25;;;5.60;99.90;;;;;;5078599;28;20162;-52
2022/12/01 00:03:30;;;;;;;69.20;38.13;;;5.70;99.90;;;;;;5084169;28;20040;-54
2022/12/01 00:06:14;;;;;;;62.67;33.67;;;5.70;99.90;;;;;;5078271;28;20119;-52
2022/12/01 00:10:24;;;;;;;72.63;37.00;;;5.70;99.90;;;;;;5078423;28;20042;-52
2022/12/01 00:11:26;;;;;;;64.43;35.10;;;5.70;99.90;;;;;;5084311;28;20040;-50
2022/12/01 00:13:52;;;;;;;68.72;37.17;;;5.80;99.90;;;;;;5091954;28;20048;-50
2022/12/01 00:16:17;;;;;;;61.55;35.33;;;5.80;99.90;;;;;;5090335;28;20474;-50
2022/12/01 00:18:43;;;;;;;68.53;37.30;;;5.70;99.90;;;;;;5094987;28;20048;-50
2022/12/01 00:21:17;;;;;;;67.38;35.05;;;5.70;99.90;;;;;;5094994;28;20072;-52
2022/12/01 00:23:47;;;;;;;68.75;35.33;;;5.70;99.90;;;;;;5091976;28;20051;-51
2022/12/01 00:26:15;;;;;;;66.78;37.90;;;5.80;99.90;;;;;;5085791;28;20139;-50
2022/12/01 00:28:41;;;;;;;67.03;34.95;;;5.70;99.90;;;;;;5083588;28;20033;-53
2022/12/01 00:31:10;;;;;;;65.65;36.40;;;5.80;99.90;;;;;;5084700;28;20195;-50
2022/12/01 00:33:37;;;;;;;61.72;34.25;;;5.60;99.90;;;;;;5084973;28;20478;-50
2022/12/01 00:36:03;;;;;;;58.25;31.30;;;5.70;99.90;;;;;;5084495;28;20040;-50
2022/12/01 00:38:29;;;;;;;61.03;33.42;;;5.60;99.90;;;;;;5089793;28;20157;-52
2022/12/01 00:40:55;;;;;;;63.90;35.65;;;5.50;99.90;;;;;;5085344;28;20432;-51
2022/12/01 00:43:21;;;;;;;61.70;33.35;;;5.50;99.90;;;;;;5082962;28;20136;-50
2022/12/01 00:45:46;;;;;;;62.38;35.42;;;5.60;99.90;;;;;;5079672;28;20123;-53
2022/12/01 00:48:12;;;;;;;62.47;35.75;;;5.50;99.90;;;;;;5078304;28;20067;-54
2022/12/01 00:50:37;;;;;;;59.25;30.95;;;5.60;99.90;;;;;;5079695;28;20399;-52
2022/12/01 00:53:03;;;;;;;57.70;35.10;;;5.50;99.90;;;;;;5080345;28;20036;-51
2022/12/01 00:55:29;;;;;;;60.05;34.10;;;5.60;99.90;;;;;;5076039;28;20129;-53
2022/12/01 00:57:54;;;;;;;58.60;34.03;;;5.70;99.90;;;;;;5074771;28;20518;-51
2022/12/01 01:00:20;;;;;;;55.45;29.25;;;5.70;99.90;;;;;;5077450;28;20567;-51
2022/12/01 01:02:46;;;;;;;61.00;34.33;;;5.60;99.90;;;;;;5075708;28;20158;-55
2022/12/01 01:05:12;;;;;;;60.92;35.08;;;5.50;99.90;;;;;;5078889;28;21282;-54
2022/12/01 01:07:37;;;;;;;54.13;30.45;;;5.50;99.90;;;;;;5076776;28;20502;-50
2022/12/01 01:10:03;;;;;;;62.45;36.13;;;5.70;99.90;;;;;;5077619;28;20040;-53
2022/12/01 01:12:29;;;;;;;49.55;25.90;;;5.60;99.90;;;;;;5085602;28;20048;-50
2022/12/01 01:14:55;;;;;;;64.68;36.90;;;5.80;99.90;;;;;;5091281;28;20047;-50
2022/12/01 01:17:20;;;;;;;62.20;35.65;;;5.20;99.90;;;;;;5094142;28;20123;-50
2022/12/01 01:19:46;;;;;;;67.78;37.15;;;5.60;99.90;;;;;;5093429;28;20044;-50
2022/12/01 01:22:12;;;;;;;63.53;35.70;;;5.70;99.90;;;;;;5086029;28;20044;-50
2022/12/01 01:24:37;;;;;;;64.95;37.92;;;5.60;99.90;;;;;;5091944;28;20414;-50
2022/12/01 01:27:04;;;;;;;67.25;38.25;;;5.60;99.90;;;;;;5084166;28;20036;-50
2022/12/01 01:29:31;;;;;;;66.07;37.53;;;5.60;99.90;;;;;;5084429;28;20036;-50
2022/12/01 01:31:57;;;;;;;69.85;37.33;;;5.50;99.90;;;;;;5088167;28;20450;-52
2022/12/01 01:34:23;;;;;;;67.65;36.88;;;5.60;99.90;;;;;;5083932;28;20043;-50
2022/12/01 01:36:48;;;;;;;79.40;41.38;;;5.70;99.90;;;;;;5082142;28;20436;-51
2022/12/01 01:39:14;;;;;;;72.00;36.90;;;5.50;99.90;;;;;;5083371;28;20040;-50
2022/12/01 01:41:40;;;;;;;75.57;38.03;;;5.70;99.90;;;;;;5081915;28;20148;-51
2022/12/01 01:44:43;;;;;;;72.82;34.78;;;5.60;99.90;;;;;;5084352;28;20503;-51
2022/12/01 01:47:09;;;;;;;82.35;41.45;;;5.50;99.90;;;;;;5083217;28;21698;-50
2022/12/01 01:49:34;;;;;;;83.95;40.30;;;5.70;99.90;;;;;;5084041;28;20035;-52
2022/12/01 01:52:03;;;;;;;78.05;40.67;;;5.70;99.90;;;;;;5077559;28;20044;-50
2022/12/01 01:54:34;;;;;;;82.88;41.92;;;5.60;99.90;;;;;;5078044;28;20047;-50
2022/12/01 01:57:01;;;;;;;82.68;37.83;;;5.50;99.90;;;;;;5078771;28;20154;-55
2022/12/01 01:59:30;;;;;;;85.22;40.63;;;5.80;99.90;;;;;;5079141;28;20044;-53
2022/12/01 02:02:02;;;;;;;86.75;41.53;;;5.70;99.90;;;;;;5076814;28;20040;-54
2022/12/01 02:04:28;;;;;;;87.80;40.63;;;5.70;99.90;;;;;;5074487;28;20056;-54
2022/12/01 02:06:54;;;;;;;87.65;42.08;;;5.70;99.90;;;;;;5074807;28;20044;-52
2022/12/01 02:09:19;;;;;;;87.72;41.22;;;5.60;99.90;;;;;;5074434;28;20516;-53
2022/12/01 02:12:05;;;;;;;88.32;42.95;;;5.60;99.90;;;;;;5089239;28;20036;-54
2022/12/01 02:14:58;;;;;;;87.80;42.97;;;5.60;99.90;;;;;;5083227;28;20062;-51
2022/12/01 02:17:47;;;;;;;87.10;41.17;;;5.50;99.90;;;;;;5083880;28;20055;-51
2022/12/01 02:20:41;;;;;;;87.88;42.85;;;5.80;99.90;;;;;;5093107;28;20052;-52
2022/12/01 02:23:37;;;;;;;87.68;42.50;;;5.60;99.90;;;;;;5083500;28;20067;-51
2022/12/01 02:26:08;;;;;;;88.90;42.78;;;5.60;99.90;;;;;;5083313;28;20389;-51
2022/12/01 02:28:52;;;;;;;90.05;42.38;;;5.60;99.90;;;;;;5081380;28;20500;-54
2022/12/01 02:31:44;;;;;;;94.65;41.63;;;5.70;99.90;;;;;;5082724;28;20032;-51
2022/12/01 02:34:16;;;;;;;93.38;41.55;;;5.50;99.90;;;;;;5073935;28;20051;-50
2022/12/01 02:36:53;;;;;;;91.55;42.05;;;5.60;99.90;;;;;;5083693;28;20047;-51
2022/12/01 02:39:41;;;;;;;89.53;41.88;;;5.60;99.90;;;;;;5083461;28;20064;-51
2022/12/01 02:45:12;;;;;;;95.70;40.05;;;5.60;99.90;;;;;;5083424;28;20048;-50
2022/12/01 02:47:40;;;;;;;97.63;43.45;;;5.60;99.90;;;;;;5076882;28;20114;-52
2022/12/01 02:50:07;;;;;;;91.03;37.97;;;5.50;99.90;;;;;;5081862;28;20044;-50
2022/12/01 02:52:33;;;;;;;89.77;40.17;;;5.60;99.90;;;;;;5078479;28;20040;-51
2022/12/01 02:54:59;;;;;;;91.22;39.42;;;5.80;99.90;;;;;;5076875;28;20294;-52
2022/12/01 02:57:25;;;;;;;100.28;43.83;;;5.70;99.90;;;;;;5078352;28;20086;-51
2022/12/01 02:59:54;;;;;;;100.85;43.53;;;5.60;99.90;;;;;;5081879;28;20048;-52
2022/12/01 03:02:42;;;;;;;98.65;43.85;;;5.70;99.90;;;;;;5077266;28;20037;-52
2022/12/01 03:05:19;;;;;;;99.03;44.35;;;5.60;99.90;;;;;;5081299;28;20040;-54
2022/12/01 03:08:46;;;;;;;102.20;45.13;;;5.40;99.90;;;;;;5074412;28;20045;-50
2022/12/01 03:11:25;;;;;;;104.45;43.15;;;5.40;99.90;;;;;;5005832;28;20374;-52
2022/12/01 03:14:29;;;;;;;105.60;45.55;;;5.40;99.90;;;;;;5009629;28;20045;-52
2022/12/01 03:16:57;;;;;;;95.28;40.85;;;5.70;99.90;;;;;;5021781;28;20512;-50
2022/12/01 03:19:40;;;;;;;99.28;42.97;;;5.60;99.90;;;;;;5012419;28;20168;-54
2022/12/01 03:22:17;;;;;;;100.30;44.65;;;5.50;99.90;;;;;;5016996;28;20520;-52
2022/12/01 03:24:47;;;;;;;98.00;42.22;;;5.60;99.90;;;;;;5010886;28;20050;-51
2022/12/01 03:27:16;;;;;;;96.00;44.30;;;5.50;99.90;;;;;;5005905;28;20664;-54
2022/12/01 03:29:46;;;;;;;102.05;43.50;;;5.70;99.90;;;;;;5012235;28;20045;-50
2022/12/01 03:32:24;;;;;;;102.72;47.15;;;5.60;99.90;;;;;;5001225;28;20058;-51
2022/12/01 03:34:57;;;;;;;96.65;41.25;;;5.40;99.90;;;;;;5021000;28;20128;-51
2022/12/01 03:37:34;;;;;;;96.07;42.55;;;5.80;99.90;;;;;;5024092;28;20552;-51
2022/12/01 03:40:05;;;;;;;94.10;43.27;;;5.50;99.90;;;;;;5024339;28;20046;-50
2022/12/01 03:42:43;;;;;;;97.78;43.65;;;5.60;99.90;;;;;;5069107;28;20044;-53
2022/12/01 03:45:16;;;;;;;98.95;44.35;;;5.60;99.90;;;;;;5086175;28;20083;-50
2022/12/01 03:47:42;;;;;;;102.63;45.17;;;5.60;99.90;;;;;;5084971;28;20036;-51
2022/12/01 03:50:12;;;;;;;92.80;43.45;;;5.60;99.90;;;;;;5086344;28;20059;-51
2022/12/01 03:52:59;;;;;;;95.38;42.63;;;5.40;99.90;;;;;;5083047;28;20597;-51
2022/12/01 03:55:30;;;;;;;100.65;43.10;;;5.40;99.90;;;;;;5086237;28;20050;-51
2022/12/01 03:58:22;;;;;;;95.82;43.45;;;5.60;99.90;;;;;;5083364;28;20044;-53
2022/12/01 04:00:52;;;;;;;98.13;44.88;;;5.70;99.90;;;;;;5086092;28;20042;-53
2022/12/01 04:03:21;;;;;;;95.60;44.38;;;5.50;99.90;;;;;;5089228;28;20053;-51
2022/12/01 04:05:47;;;;;;;93.25;43.42;;;5.40;99.90;;;;;;5085963;28;20036;-51
2022/12/01 04:08:13;;;;;;;95.85;44.47;;;5.50;99.90;;;;;;5081868;28;20456;-54
2022/12/01 04:10:38;;;;;;;91.55;43.67;;;5.70;99.90;;;;;;5084272;28;20116;-52
2022/12/01 04:13:04;;;;;;;82.45;38.97;;;5.50;99.90;;;;;;5083929;28;20043;-54
2022/12/01 04:15:29;;;;;;;89.53;41.38;;;5.50;99.90;;;;;;5081893;28;20168;-54
2022/12/01 04:17:55;;;;;;;84.57;42.38;;;5.50;99.90;;;;;;5083102;28;20278;-53
2022/12/01 04:20:21;;;;;;;90.40;44.15;;;5.30;99.90;;;;;;5088014;28;20032;-53
2022/12/01 04:22:47;;;;;;;87.07;43.17;;;5.60;99.90;;;;;;5083470;28;20093;-51
2022/12/01 04:25:13;;;;;;;93.40;44.78;;;5.40;99.90;;;;;;5083545;28;20121;-51
2022/12/01 04:27:38;;;;;;;86.55;44.25;;;5.40;99.90;;;;;;5082309;28;20113;-53
2022/12/01 04:30:06;;;;;;;88.63;44.13;;;5.50;99.90;;;;;;5099878;28;20379;-54
2022/12/01 04:32:36;;;;;;;85.47;43.97;;;5.60;99.90;;;;;;5084813;28;20036;-53
2022/12/01 04:35:01;;;;;;;92.57;45.28;;;5.50;99.90;;;;;;5084678;28;20039;-54
2022/12/01 04:37:27;;;;;;;81.47;43.25;;;5.50;99.90;;;;;;5083688;28;20046;-53
2022/12/01 04:39:52;;;;;;;94.05;45.10;;;5.60;99.90;;;;;;5081655;28;20040;-53
2022/12/01 04:42:18;;;;;;;85.93;44.10;;;5.50;99.90;;;;;;5085429;28;20036;-50
2022/12/01 04:44:44;;;;;;;84.47;41.90;;;5.50;99.90;;;;;;5083872;28;20123;-50
2022/12/01 04:47:09;;;;;;;77.45;40.95;;;5.60;99.90;;;;;;5082717;28;20047;-52
2022/12/01 04:49:36;;;;;;;84.70;43.17;;;5.60;99.90;;;;;;5085133;28;20048;-53
2022/12/01 04:52:02;;;;;;;82.32;40.15;;;5.50;99.90;;;;;;5084629;28;20187;-54
2022/12/01 04:54:27;;;;;;;83.30;41.22;;;5.30;99.90;;;;;;5079310;28;20117;-51
2022/12/01 04:56:53;;;;;;;83.85;44.20;;;5.60;99.90;;;;;;5085594;28;20060;-50
2022/12/01 04:59:19;;;;;;;79.38;37.67;;;5.40;99.90;;;;;;5084610;28;20118;-50
2022/12/01 05:01:46;;;;;;;83.45;43.72;;;5.60;99.90;;;;;;5084229;28;20043;-51
2022/12/01 05:04:13;;;;;;;80.80;42.83;;;5.40;99.90;;;;;;5080227;28;20237;-50
2022/12/01 05:06:39;;;;;;;82.03;44.00;;;5.50;99.90;;;;;;5081480;28;20051;-50
2022/12/01 05:09:05;;;;;;;79.60;42.38;;;5.50;99.90;;;;;;5083575;28;20490;-50
2022/12/01 05:11:31;;;;;;;80.38;42.38;;;5.40;99.90;;;;;;5084491;28;20090;-53
2022/12/01 05:13:57;;;;;;;82.88;43.38;;;5.50;99.90;;;;;;5085539;28;20502;-51
2022/12/01 05:16:26;;;;;;;80.03;42.17;;;5.50;99.90;;;;;;5085855;28;20173;-50
2022/12/01 05:21:40;;;;;;;82.60;43.15;;;5.60;99.90;;;;;;5085194;28;21481;-53
2022/12/01 05:24:06;;;;;;;76.03;41.88;;;5.50;99.90;;;;;;5079771;28;20063;-52
2022/12/01 05:26:32;;;;;;;75.80;41.35;;;5.70;99.90;;;;;;5082086;28;20124;-52
2022/12/01 05:28:58;;;;;;;79.88;40.92;;;5.50;99.90;;;;;;5080348;28;20131;-53
2022/12/01 05:31:23;;;;;;;79.75;41.10;;;5.40;99.90;;;;;;5081033;28;20114;-50
2022/12/01 05:33:49;;;;;;;82.28;43.42;;;5.50;99.90;;;;;;5076918;28;20052;-52
2022/12/01 05:36:15;;;;;;;85.88;44.50;;;5.50;99.90;;;;;;5079677;28;20078;-50
2022/12/01 05:38:40;;;;;;;84.53;43.50;;;5.50;99.90;;;;;;5079708;28;20036;-51
2022/12/01 05:41:06;;;;;;;82.47;42.03;;;5.50;99.90;;;;;;5080401;28;20127;-51
2022/12/01 05:43:31;;;;;;;82.88;43.58;;;5.30;99.90;;;;;;5080293;28;20051;-52
2022/12/01 05:45:57;;;;;;;81.72;44.95;;;5.50;99.90;;;;;;5086193;28;20474;-54
2022/12/01 05:48:23;;;;;;;83.47;43.65;;;5.60;99.90;;;;;;5078997;28;20132;-54
2022/12/01 05:50:49;;;;;;;81.68;43.38;;;5.60;99.90;;;;;;5080412;28;20063;-52
2022/12/01 05:53:15;;;;;;;83.57;43.80;;;5.50;99.90;;;;;;5081522;28;20131;-55
2022/12/01 05:55:41;;;;;;;84.88;45.00;;;5.40;99.90;;;;;;5080812;28;20078;-50
2022/12/01 05:58:07;;;;;;;85.53;44.03;;;5.60;99.90;;;;;;5080434;28;20596;-52
2022/12/01 06:00:33;;;;;;;84.10;43.95;;;5.60;99.90;;;;;;5080477;28;20044;-55
2022/12/01 06:02:58;;;;;;;84.70;43.55;;;5.50;99.90;;;;;;5081768;28;20123;-52
2022/12/01 06:05:24;;;;;;;85.75;44.25;;;5.60;99.90;;;;;;5076819;28;20055;-50
2022/12/01 06:07:50;;;;;;;79.43;42.25;;;5.50;99.90;;;;;;5077003;28;20218;-50
2022/12/01 06:10:15;;;;;;;78.82;42.58;;;5.30;99.90;;;;;;5077984;28;20048;-51
2022/12/01 06:12:41;;;;;;;82.82;43.00;;;5.40;99.90;;;;;;5077557;28;20040;-54
2022/12/01 06:15:07;;;;;;;78.80;42.08;;;5.60;99.90;;;;;;5076291;28;20066;-51
2022/12/01 06:17:33;;;;;;;81.43;43.00;;;5.50;99.90;;;;;;5075065;28;20075;-50
2022/12/01 06:19:59;;;;;;;78.93;42.03;;;5.60;99.90;;;;;;5078890;28;20032;-50
2022/12/01 06:22:24;;;;;;;84.30;41.42;;;5.50;99.90;;;;;;5084292;28;20052;-51
2022/12/01 06:24:50;;;;;;;84.63;44.38;;;5.60;99.90;;;;;;5077301;28;20371;-50
2022/12/01 06:27:16;;;;;;;84.00;43.08;;;5.60;99.90;;;;;;5073111;28;20081;-51
2022/12/01 06:29:41;;;;;;;81.93;43.00;;;5.40;99.90;;;;;;5074061;28;20497;-54
2022/12/01 06:32:07;;;;;;;88.60;45.88;;;5.40;99.90;;;;;;5075431;28;20112;-54
2022/12/01 06:34:32;;;;;;;83.93;44.45;;;5.30;99.90;;;;;;5075776;28;20931;-54
2022/12/01 06:36:58;;;;;;;87.68;45.28;;;5.50;99.90;;;;;;5075460;28;20040;-53
2022/12/01 06:39:24;;;;;;;85.63;44.90;;;5.50;99.90;;;;;;5076472;28;20282;-52
2022/12/01 06:41:49;;;;;;;78.70;41.13;;;5.40;99.90;;;;;;5074815;28;20039;-53
2022/12/01 06:44:15;;;;;;;86.47;44.05;;;5.70;99.90;;;;;;5076828;28;20093;-51
2022/12/01 06:46:40;;;;;;;84.32;43.58;;;5.50;99.90;;;;;;5075831;28;20427;-52
2022/12/01 06:49:11;;;;;;;82.22;44.70;;;5.60;99.90;;;;;;5075968;28;20566;-54
2022/12/01 06:51:36;;;;;;;89.38;45.13;;;5.60;99.90;;;;;;5075977;28;20093;-54
2022/12/01 06:54:02;;;;;;;83.05;42.42;;;5.60;99.90;;;;;;5077055;28;20493;-54
2022/12/01 06:56:28;;;;;;;87.38;43.05;;;5.50;99.90;;;;;;5079431;28;20055;-54
2022/12/01 06:58:53;;;;;;;88.85;43.25;;;5.50;99.90;;;;;;5083166;28;20043;-52
2022/12/01 07:01:19;;;;;;;85.03;42.45;;;5.30;99.90;;;;;;5083210;28;20166;-52
2022/12/01 07:03:49;;;;;;;87.30;45.08;;;5.30;99.90;;;;;;5082818;28;20090;-54
2022/12/01 07:06:16;;;;;;;87.68;43.33;;;5.20;99.90;;;;;;5084993;28;20118;-51
2022/12/01 07:08:41;;;;;;;84.70;39.70;;;5.20;99.90;;;;;;5081910;28;20047;-52
2022/12/01 07:11:11;;;;;;;91.53;46.42;;;5.30;99.90;;;;;;5082247;28;20044;-50
2022/12/01 07:13:37;;;;;;;89.40;45.72;;;5.30;99.90;;;;;;5087251;28;20052;-51
2022/12/01 07:16:05;;;;;;;94.03;47.13;;;5.20;99.90;;;;;;5087351;28;20047;-50
2022/12/01 07:18:31;;;;;;;98.53;45.50;;;5.30;99.90;;;;;;5086276;28;20505;-49
2022/12/01 07:21:06;;;;;;;95.47;46.65;;;5.20;99.90;;;;;;5095307;28;20102;-50
2022/12/01 07:23:32;;;;;;;91.10;46.33;;;5.30;99.90;;;;;;5084057;28;20177;-53
2022/12/01 07:26:03;;;;;;;93.90;46.45;;;5.20;99.90;;;;;;5078160;28;20119;-50
2022/12/01 07:28:29;;;;;;;93.78;46.50;;;5.20;99.90;;;;;;5084393;28;20505;-50
2022/12/01 07:31:05;;;;;;;93.93;46.65;;;5.20;99.90;;;;;;5081379;28;20036;-50
2022/12/01 07:33:30;;;;;;;92.20;45.88;;;5.40;99.90;;;;;;5082400;28;20047;-50
2022/12/01 07:35:56;;;;;;;90.22;46.40;;;5.40;99.90;;;;;;5086852;28;20032;-54
2022/12/01 07:38:22;;;;;;;95.97;45.22;;;5.40;99.90;;;;;;5087153;28;20040;-50
2022/12/01 07:40:48;;;;;;;92.63;48.78;;;5.30;99.90;;;;;;5086105;28;20113;-50
2022/12/01 07:43:13;;;;;;;91.70;47.05;;;5.40;99.90;;;;;;5085260;28;20496;-50
2022/12/01 07:45:39;;;;;;;93.85;46.15;;;5.50;99.90;;;;;;5088793;28;20040;-51
2022/12/01 07:48:05;;;;;;;97.30;46.80;;;5.40;99.90;;;;;;5086072;28;20032;-54
2022/12/01 07:50:31;;;;;;;91.03;47.03;;;5.40;99.90;;;;;;5084603;28;20028;-52
2022/12/01 07:52:56;;;;;;;94.28;47.63;;;5.40;99.90;;;;;;5085712;28;20051;-51
2022/12/01 07:55:22;;;;;;;91.95;47.05;;;5.40;99.90;;;;;;5085398;28;20509;-50
2022/12/01 07:57:48;;;;;;;93.65;48.58;;;5.50;99.90;;;;;;5084741;28;20044;-50
2022/12/01 08:00:14;;;;;;;97.57;48.28;;;5.60;99.90;;;;;;5085335;28;20040;-51
2022/12/01 08:02:39;;;;;;;99.32;47.65;;;5.60;99.90;;;;;;5083625;28;20076;-53
2022/12/01 08:05:06;;;;;;;93.20;46.85;;;5.50;99.90;;;;;;5085872;28;20422;-52
2022/12/01 08:07:31;;;;;;;78.95;39.00;;;5.40;99.90;;;;;;5088629;28;20040;-51
2022/12/01 08:09:57;;;;;;;90.65;46.72;;;5.40;99.90;;;;;;5088780;28;20051;-54
2022/12/01 08:12:23;;;;;;;87.97;43.10;;;5.40;99.90;;;;;;5085583;28;20048;-53
2022/12/01 08:14:48;;;;;;;90.38;42.63;;;5.50;99.90;;;;;;5085836;28;20032;-51
2022/12/01 08:17:14;;;;;;;92.97;44.45;;;5.40;99.90;;;;;;5081912;28;20043;-53
2022/12/01 08:19:39;;;;;;;91.13;46.45;;;5.50;99.90;;;;;;5085457;28;20510;-53
2022/12/01 08:22:05;;;;;;;91.85;47.45;;;5.50;99.90;;;;;;5082288;28;20044;-53
2022/12/01 08:24:30;;;;;;;94.13;46.95;;;5.60;99.90;;;;;;5080538;28;20398;-51
2022/12/01 08:26:56;;;;;;;93.47;45.10;;;5.60;99.90;;;;;;5086294;28;20394;-51
2022/12/01 08:29:22;;;;;;;90.32;44.88;;;5.50;99.90;;;;;;5083452;28;20036;-50
2022/12/01 08:31:47;;;;;;;89.57;45.13;;;5.50;99.90;;;;;;5084997;28;20040;-50
2022/12/01 08:34:13;;;;;;;88.05;44.60;;;5.50;99.90;;;;;;5086065;28;20040;-51
2022/12/01 08:36:39;;;;;;;82.85;42.97;;;5.50;99.90;;;;;;5084243;28;20371;-50
2022/12/01 08:39:06;;;;;;;94.40;45.42;;;5.50;99.90;;;;;;5083860;28;20043;-53
2022/12/01 08:41:32;;;;;;;90.90;44.28;;;5.60;99.90;;;;;;5089500;28;20036;-50
2022/12/01 08:43:58;;;;;;;90.53;45.67;;;5.80;99.90;;;;;;5080881;28;20051;-53
2022/12/01 08:46:25;;;;;;;90.25;44.80;;;5.70;99.90;;;;;;5087456;28;20043;-50
2022/12/01 08:48:53;;;;;;;85.50;44.67;;;;;;;;;;5090701;28;20040;-50
2022/12/01 08:51:19;;;;;;;87.10;45.75;;;5.70;99.90;;;;;;5089962;28;20097;-51
2022/12/01 08:53:47;;;;;;;83.03;41.58;;;5.70;99.90;;;;;;5083821;28;20044;-51
2022/12/01 08:56:14;;;;;;;84.35;40.75;;;5.70;99.90;;;;;;5094024;28;20048;-51
2022/12/01 08:58:40;;;;;;;84.00;45.57;;;5.70;99.90;;;;;;5089993;28;20048;-50
2022/12/01 09:01:08;;;;;;;82.03;43.15;;;5.70;99.90;;;;;;5077860;28;20446;-53
2022/12/01 09:03:36;;;;;;;84.13;42.92;;;5.70;99.90;;;;;;5081325;28;20036;-53
2022/12/01 09:06:05;;;;;;;84.53;43.00;;;;;;;;;;5089895;28;20043;-54
2022/12/01 09:08:33;;;;;;;76.43;38.00;;;5.70;99.90;;;;;;5085243;28;21147;-53
2022/12/01 09:11:01;;;;;;;83.25;42.20;;;5.80;99.90;;;;;;5082226;28;20592;-54
2022/12/01 09:13:27;;;;;;;85.43;43.53;;;5.90;99.90;;;;;;5080150;28;20398;-50
2022/12/01 09:15:57;;;;;;;74.90;38.15;;;5.80;99.90;;;;;;5083507;28;20040;-50
2022/12/01 09:18:23;;;;;;;76.97;37.47;;;5.80;99.90;;;;;;5084251;28;20043;-53
2022/12/01 09:20:48;;;;;;;71.07;36.10;;;5.80;99.90;;;;;;5080867;28;20044;-52
2022/12/01 09:23:14;;;;;;;78.13;40.28;;;5.80;99.90;;;;;;5080707;28;20036;-53
2022/12/01 09:25:39;;;;;;;87.57;43.40;;;5.80;99.90;;;;;;5077082;28;20044;-49
2022/12/01 09:28:05;;;;;;;78.95;40.92;;;6.00;99.90;;;;;;5076063;28;20067;-50
2022/12/01 09:30:33;;;;;;;74.25;40.08;;;6.10;99.90;;;;;;5080000;28;20138;-50
2022/12/01 09:32:59;;;;;;;87.90;44.22;;;6.00;99.90;;;;;;5079568;28;20496;-50
2022/12/01 09:35:25;;;;;;;84.53;42.42;;;6.00;99.90;;;;;;5111636;22;20070;-50
2022/12/01 09:37:51;;;;;;;70.78;34.85;;;6.10;99.90;;;;;;5107575;27;20486;-49
2022/12/01 09:40:16;;;;;;;75.38;37.60;;;6.00;99.90;;;;;;5109693;28;20509;-49
2022/12/01 09:42:44;;;;;;;77.15;41.20;;;6.00;99.90;;;;;;5108781;28;20090;-49
2022/12/01 09:45:33;;;;;;;81.15;42.70;;;5.90;99.90;;;;;;5105716;28;21740;-51
2022/12/01 09:48:02;;;;;;;78.82;40.13;;;5.90;99.90;;;;;;5110783;28;20043;-50
2022/12/01 09:50:29;;;;;;;76.05;41.22;;;6.10;99.90;;;;;;5111570;28;20051;-53
2022/12/01 09:53:06;;;;;;;77.63;41.03;;;6.00;99.90;;;;;;5108657;28;20469;-52
2022/12/01 09:55:32;;;;;;;76.90;41.58;;;6.10;99.90;;;;;;5105401;28;20070;-50
2022/12/01 09:58:01;;;;;;;74.65;40.70;;;6.30;99.90;;;;;;5113992;28;20131;-50
2022/12/01 10:00:35;;;;;;;76.05;39.03;;;6.20;99.90;;;;;;5112037;28;20035;-50
2022/12/01 10:03:05;;;;;;;75.85;38.53;;;6.20;99.90;;;;;;5091087;28;20082;-50
2022/12/01 10:05:55;;;;;;;77.00;40.25;;;6.20;99.90;;;;;;5089807;28;20116;-50
2022/12/01 10:08:25;;;;;;;69.70;32.00;;;6.30;99.90;;;;;;5088388;28;20087;-50
2022/12/01 10:10:55;;;;;;;79.93;41.15;;;6.10;99.90;;;;;;5090568;28;20040;-50
2022/12/01 10:13:23;;;;;;;75.22;39.80;;;6.20;99.90;;;;;;5091935;28;20089;-50
2022/12/01 10:16:24;;;;;;;73.05;37.90;;;6.40;99.90;;;;;;5089607;28;20048;-51
2022/12/01 10:19:17;;;;;;;71.70;35.60;;;6.30;99.90;;;;;;5086749;28;20051;-50
2022/12/01 10:22:04;;;;;;;73.15;38.83;;;6.10;99.90;;;;;;5093411;28;20541;-54
2022/12/01 10:24:55;;;;;;;69.82;37.92;;;6.30;99.90;;;;;;5087990;28;20040;-51
2022/12/01 10:27:41;;;;;;;69.60;34.25;;;6.30;99.90;;;;;;5085576;28;20044;-54
2022/12/01 10:30:14;;;;;;;64.57;33.47;;;6.40;99.90;;;;;;5083614;28;20036;-50
2022/12/01 10:32:50;;;;;;;75.57;39.53;;;6.30;99.90;;;;;;5086918;28;20045;-53
2022/12/01 10:35:18;;;;;;;74.38;41.67;;;6.30;99.90;;;;;;5087323;28;20054;-46
2022/12/01 10:37:46;;;;;;;74.10;39.78;;;6.20;99.90;;;;;;5085790;28;20048;-48
2022/12/01 10:40:14;;;;;;;74.13;38.60;;;6.30;99.90;;;;;;5088260;28;20047;-48
2022/12/01 10:42:47;;;;;;;71.57;40.50;;;6.40;99.90;;;;;;5082023;28;20514;-46
2022/12/01 10:45:22;;;;;;;68.20;36.92;;;6.40;99.90;;;;;;5087599;28;20066;-46
2022/12/01 10:48:20;;;;;;;70.28;34.90;;;6.50;99.90;;;;;;5088065;28;20071;-47
2022/12/01 10:50:49;;;;;;;73.03;38.45;;;6.50;99.90;;;;;;5086461;28;20040;-49
2022/12/01 10:53:34;;;;;;;72.32;38.38;;;6.70;99.90;;;;;;5084719;28;20044;-46
2022/12/01 10:56:17;;;;;;;69.82;37.03;;;6.50;99.90;;;;;;5084546;28;20044;-46
2022/12/01 10:58:50;;;;;;;73.05;38.40;;;6.60;99.90;;;;;;5085772;28;20111;-46
2022/12/01 11:01:25;;;;;;;67.60;38.42;;;6.60;99.90;;;;;;5084293;28;20048;-47
2022/12/01 11:03:56;;;;;;;68.70;38.17;;;6.70;99.90;;;;;;5098278;28;20502;-47
2022/12/01 11:06:25;;;;;;;68.50;37.58;;;6.60;99.90;;;;;;5064442;28;20058;-47
2022/12/01 11:09:01;;;;;;;66.65;37.03;;;;;;;;;;5087673;28;20036;-47
2022/12/01 11:11:53;;;;;;;71.95;38.10;;;6.40;99.90;;;;;;5082198;28;20123;-47
2022/12/01 11:14:29;;;;;;;59.65;31.15;;;6.60;99.90;;;;;;5086906;28;20075;-46
2022/12/01 11:16:54;;;;;;;65.80;38.53;;;6.60;99.90;;;;;;5083786;28;20112;-46
2022/12/01 11:19:33;;;;;;;55.28;30.27;;;6.60;99.90;;;;;;5086492;28;20483;-46
2022/12/01 11:22:19;;;;;;;69.35;38.08;;;6.60;99.90;;;;;;5086511;28;20463;-46
2022/12/01 11:24:51;;;;;;;65.47;36.70;;;6.60;99.90;;;;;;5086817;28;20032;-46
2022/12/01 11:27:20;;;;;;;62.47;35.22;;;6.60;99.90;;;;;;5085748;28;20040;-48
2022/12/01 11:29:48;;;;;;;56.67;30.77;;;6.70;99.90;;;;;;5086029;28;20386;-47
2022/12/01 11:32:20;;;;;;;66.50;35.70;;;6.70;99.90;;;;;;5085179;28;20555;-46
2022/12/01 11:35:11;;;;;;;63.72;36.83;;;6.70;99.90;;;;;;5086732;28;20177;-49
2022/12/01 11:37:47;;;;;;;55.60;30.48;;;6.70;99.90;;;;;;5078677;28;20093;-47
2022/12/01 11:40:32;;;;;;;58.08;33.05;;;6.70;99.90;;;;;;5085507;28;20512;-46
2022/12/01 11:43:04;;;;;;;66.13;36.80;;;6.70;99.90;;;;;;5092692;28;20157;-46
2022/12/01 11:45:41;;;;;;;68.40;35.30;;;6.70;99.90;;;;;;5094918;28;20040;-46
2022/12/01 11:48:14;;;;;;;63.55;36.17;;;6.70;99.90;;;;;;5095687;28;20040;-46
2022/12/01 11:50:42;;;;;;;56.67;34.40;;;6.70;99.90;;;;;;5094663;28;20070;-46
2022/12/01 11:53:35;;;;;;;57.15;34.95;;;6.70;99.90;;;;;;5092746;28;20040;-49
2022/12/01 11:56:27;;;;;;;59.85;33.38;;;6.80;99.90;;;;;;5096641;28;20119;-51
2022/12/01 11:59:26;;;;;;;60.47;34.38;;;6.80;99.90;;;;;;5097476;28;20140;-47
2022/12/01 12:02:05;;;;;;;58.50;33.00;;;6.70;99.90;;;;;;5063052;28;20126;-46
2022/12/01 12:04:39;;;;;;;61.78;34.50;;;6.70;99.90;;;;;;5089084;28;20554;-49
2022/12/01 12:07:25;;;;;;;56.67;32.65;;;6.80;99.90;;;;;;5084363;28;20056;-47
2022/12/01 12:10:13;;;;;;;57.28;33.55;;;6.80;99.90;;;;;;5085845;28;20044;-49
2022/12/01 12:12:57;;;;;;;58.10;34.10;;;6.80;99.90;;;;;;5085877;28;20044;-47
2022/12/01 12:15:43;;;;;;;52.95;31.65;;;6.80;99.90;;;;;;5084753;28;20048;-48
2022/12/01 12:18:28;;;;;;;54.60;33.42;;;6.80;99.90;;;;;;5086279;28;20170;-48
2022/12/01 12:21:16;;;;;;;49.92;32.33;;;6.80;99.90;;;;;;5093685;28;20058;-47
2022/12/01 12:23:49;;;;;;;;;;;6.80;99.90;;;;;;5084783;28;20174;-46
2022/12/01 12:26:33;;;;;;;46.30;30.23;;;6.80;99.90;;;;;;5089124;28;19920;-47
2022/12/01 12:29:19;;;;;;;47.33;29.63;;;6.80;99.90;;;;;;5091489;28;20072;-46
2022/12/01 12:32:07;;;;;;;48.95;28.58;;;6.70;99.90;;;;;;5093097;28;20517;-48
2022/12/01 12:34:51;;;;;;;;;;;6.80;99.90;;;;;;5087813;28;20051;-47
2022/12/01 12:37:41;;;;;;;48.15;29.58;;;6.80;99.90;;;;;;5074591;28;19920;-46
2022/12/01 12:40:37;;;;;;;51.28;31.20;;;6.80;99.90;;;;;;5091809;28;20032;-47
2022/12/01 12:43:21;;;;;;;53.60;31.15;;;6.70;99.90;;;;;;5081336;28;20048;-46
2022/12/01 12:46:07;;;;;;;53.13;31.65;;;6.70;99.90;;;;;;5074619;28;20147;-46
2022/12/01 12:48:44;;;;;;;48.35;28.33;;;6.70;99.90;;;;;;5083611;28;20036;-48
2022/12/01 12:51:34;;;;;;;43.00;24.30;;;6.70;99.90;;;;;;5093273;28;20078;-49
2022/12/01 12:54:11;;;;;;;48.00;30.08;;;6.70;99.90;;;;;;5093184;28;20478;-50
2022/12/01 12:56:42;;;;;;;45.15;26.90;;;6.70;99.90;;;;;;5092866;28;20093;-46
2022/12/01 12:59:18;;;;;;;46.05;27.75;;;6.70;99.90;;;;;;5089836;28;20048;-46
2022/12/01 13:01:56;;;;;;;44.80;29.30;;;6.70;99.90;;;;;;5102808;28;20044;-46
2022/12/01 13:04:36;;;;;;;48.22;28.27;;;6.70;99.90;;;;;;5094030;28;20048;-50